createdAt,value
2019-05-02T00:10:01.218Z,67.21
2019-05-02T00:25:11.068Z,67.40
2019-05-02T00:40:20.126Z,67.58
2019-05-02T00:55:28.908Z,67.61
2019-05-02T01:10:37.376Z,67.18
2019-05-02T01:25:47.410Z,67.41
2019-05-02T01:40:55.869Z,67.87
2019-05-02T01:56:02.914Z,67.76
2019-05-02T02:11:12.254Z,67.93
2019-05-02T02:26:23.589Z,67.72
2019-05-02T02:41:30.659Z,67.96
2019-05-02T02:56:40.448Z,68.40
2019-05-02T03:11:49.478Z,67.97
2019-05-02T03:26:59.595Z,68.10
2019-05-02T03:42:07.488Z,68.23
2019-05-02T03:57:14.190Z,67.99
2019-05-02T04:12:22.999Z,68.13
2019-05-02T04:27:34.209Z,68.28
2019-05-02T04:42:40.690Z,68.20
2019-05-02T04:57:51.047Z,67.79
2019-05-02T05:12:57.305Z,67.82
2019-05-02T05:28:06.094Z,67.17
2019-05-02T05:43:15.882Z,65.22
2019-05-02T05:58:22.367Z,62.90
2019-05-02T06:13:29.446Z,56.68
2019-05-02T06:28:36.311Z,56.47
2019-05-02T06:43:46.535Z,54.05
2019-05-02T06:58:54.217Z,53.25
2019-05-02T07:14:12.421Z,53.31
2019-05-02T07:29:09.698Z,51.50
2019-05-02T07:44:16.387Z,50.84
2019-05-02T07:59:25.147Z,50.58
2019-05-02T08:14:34.654Z,47.87
2019-05-02T08:30:35.270Z,47.85
2019-05-02T08:45:39.642Z,47.44
2019-05-02T09:00:47.697Z,44.82
2019-05-02T09:15:56.089Z,42.96
2019-05-02T09:31:06.647Z,40.46
2019-05-02T09:46:16.794Z,42.63
2019-05-02T10:01:37.182Z,37.50
2019-05-02T10:16:45.797Z,37.67
2019-05-02T10:31:52.888Z,36.89
2019-05-02T10:47:00.039Z,37.85
2019-05-02T11:02:09.573Z,36.98
2019-05-02T11:17:22.628Z,37.23
2019-05-02T11:32:28.809Z,33.95
2019-05-02T11:47:35.631Z,34.05
2019-05-02T12:02:42.009Z,32.70
2019-05-02T12:17:48.955Z,31.76
2019-05-02T12:32:55.915Z,30.25
2019-05-02T12:48:02.901Z,30.46
2019-05-02T13:03:12.008Z,30.29
2019-05-02T13:18:25.372Z,29.90
2019-05-02T13:33:35.839Z,31.01
2019-05-02T13:48:42.747Z,31.66
2019-05-02T14:03:49.494Z,32.30
2019-05-02T14:18:57.207Z,30.87
2019-05-02T14:34:21.767Z,31.50
2019-05-02T14:49:28.760Z,31.46
2019-05-02T15:04:38.209Z,31.34
2019-05-02T15:19:43.822Z,33.38
2019-05-02T15:34:55.819Z,34.92
2019-05-02T15:50:03.027Z,33.47
2019-05-02T16:05:11.881Z,35.20
2019-05-02T16:20:33.803Z,35.77
2019-05-02T16:35:42.008Z,37.73
2019-05-02T16:50:50.201Z,37.67
2019-05-02T17:05:56.980Z,36.62
2019-05-02T17:21:04.600Z,39.22
2019-05-02T17:36:11.710Z,40.88
2019-05-02T17:51:33.920Z,41.87
2019-05-02T18:06:38.479Z,43.46
2019-05-02T18:21:45.959Z,44.83
2019-05-02T18:36:57.489Z,47.12
2019-05-02T18:52:02.117Z,48.51
2019-05-02T19:07:14.312Z,50.93
2019-05-02T19:22:18.507Z,53.62
2019-05-02T19:37:25.874Z,55.52
2019-05-02T19:52:38.798Z,56.90
2019-05-02T20:07:42.550Z,57.58
2019-05-02T20:22:49.236Z,57.63
2019-05-02T20:37:55.931Z,59.33
2019-05-02T20:53:04.249Z,59.79
2019-05-02T21:08:10.802Z,61.23
2019-05-02T21:23:18.450Z,61.36
2019-05-02T21:38:25.937Z,61.24
2019-05-02T21:53:56.036Z,61.63
2019-05-02T22:08:59.513Z,61.57
2019-05-02T22:24:11.305Z,62.04
2019-05-02T22:39:16.320Z,62.94
2019-05-02T22:54:30.229Z,63.53
2019-05-02T23:09:33.334Z,63.41
2019-05-02T23:24:53.974Z,63.80
2019-05-02T23:40:02.124Z,64.96
2019-05-02T23:55:12.253Z,66.02
